NC37 weather

Mountain View Aerodrome
Reidsville, North Carolina, United States

Public forecast

Using degrees Fahrenheit for public forecast. Weather courtesy of forecast.io.

METAR (pilot weather report)

Closest report is Rockingham County NC Shiloh Airport, 5.8 nm (10.8 km) N. Retrieved 2019/07/15 17:25 UTC (16 minutes ago):

KSIF 151725Z AUTO CLR 32/19 A3014 RMK AO2 T03150193 PWINO

TAF (pilot weather forecast)

Closest forecast is Piedmont Triad International Airport, 15.3 nm (28.3 km) SSW. Retrieved 2019/07/15 12:42 UTC (5 hours ago):

TAF KGSO 151139Z 1512/1612 03005KT P6SM FEW070 SCT250 TEMPO 1513/1516 02009G15KT